Jump to content

  •  

UNITED AIRLINES FLIGHT UA1650 FLOWN ON 01-06-2018 BY CAPTAIN JIM BOERMAN

Pilot StatsCaptain Jim Boerman (LDP136) • 4,772.1 total hours • 1,444 total flights [View Logbook]
FLIGHT DETAILS
StatusReceived and approved on 2018-01-06 at 14:01:06
Origin AirportOranjestad-Reina Beatrix Intl. (TNCA) • Aruba Island, Aruba (62 feet MSL)
Filed Flight PlanTNCA NOREX UA567 ABA UG442 BIBIP UL795 GELOG UL210 BORDO B760 ZBV BR55V PBI J79 OMN J45 AMG J46 VXV J99 IIU J89 CADIZ KORD
Destination AirportChicago-OHare Intl (KORD) • Chicago, Illinois, United States (668 feet MSL)
Alternate AirportDane Co Regl-Truax (KMSN) • Madison, Wisconsin, United States (887 feet MSL)
AirlineUnited Airlines
AircraftBoeing 737-900 | Winglets (73X / B737-900)
FS Aircraft UsedBoeing 737-924 United Airlines (Merger) Winglets
Cruising AltitudeFL360
Distance Flown2,001 nautical miles
Passengers Onboard106 passengers (60.92% full)
DEPARTURE DETAILS
Time Out09:54:54
Taxi Data178,069 lbs total with 41,939 lbs of fuel onboard
Takeoff Data10:06:19 (11 minutes after leaving gate/ramp) • 177,302 lbs total • 7° pitch at 179 knots
Departure METARTNCA 061300Z 10013KT 080V140 9999 FEW018 29/23 Q1015 NOSIG
ARRIVAL DETAILS
Landing Data13:22:43 • 145,712 lbs total • 2° pitch doing 134 knots at a rate of -246.06 feet/minute with 8,995 lbs of fuel onboard
Time In13:34:20 (12 minutes after landing)
Ramp Weight145,125 lbs total
Total Fuel Used32,944 lbs
Total Block Time05:39:11 (5.7 hours) while 23 minutes were spent on the ground
Arrival METARKORD 061851Z 00000KT 10SM FEW030 FEW250 M09/M21 A3056 RMK AO2 SLP366 T10941211
MISCELLANEOUS DETAILS
LiveDISPATCH Version4.8.3.1
FS Version
FSUIPC Version5.12
OS VersionWindows 7 32-bit
Screen Resolution1920 x 1080
Pilot's CommentsNo Comments Reported
FLIGHT MAP